Time;durP1;ratioP1;P1;durP2;ratioP2;P2;SDS_P1;SDS_P2;PMS_P1;PMS_P2;Temp;Humidity;BMP_temperature;BMP_pressure;BME280_temperature;BME280_humidity;BME280_pressure;Samples;Min_cycle;Max_cycle;Signal;HPM_P1;HPM_P2
2023/01/30 00:01:04;;;;;;;18.97;7.23;;;;;;;;;;5093595;28;20055;-81
2023/01/30 00:03:30;;;;;;;17.37;7.77;;;;;;;;;;5089775;28;20028;-81
2023/01/30 00:05:55;;;;;;;19.07;8.47;;;;;;;;;;5073625;28;20435;-81
2023/01/30 00:08:20;;;;;;;21.97;9.73;;;;;;;;;;5088144;28;20431;-81
2023/01/30 00:10:46;;;;;;;21.13;9.63;;;;;;;;;;5094522;28;20123;-82
2023/01/30 00:13:13;;;;;;;18.60;7.60;;;;;;;;;;5095193;28;20020;-81
2023/01/30 00:15:38;;;;;;;18.67;7.43;;;;;;;;;;5093333;28;20511;-80
2023/01/30 00:18:03;;;;;;;17.90;8.40;;;;;;;;;;5094777;28;20044;-81
2023/01/30 00:20:29;;;;;;;18.30;6.07;;;;;;;;;;5093005;28;20118;-81
2023/01/30 00:22:54;;;;;;;20.07;6.83;;;;;;;;;;5092971;28;20024;-81
2023/01/30 00:25:19;;;;;;;12.70;6.43;;;;;;;;;;5083608;28;20020;-81
2023/01/30 00:27:44;;;;;;;15.03;5.47;;;;;;;;;;5092985;28;20103;-81
2023/01/30 00:30:10;;;;;;;16.60;6.63;;;;;;;;;;5094523;28;20077;-81
2023/01/30 00:32:35;;;;;;;16.60;5.70;;;;;;;;;;5093413;28;20024;-82
2023/01/30 00:35:00;;;;;;;13.97;5.87;;;;;;;;;;5092658;28;20466;-81
2023/01/30 00:37:25;;;;;;;16.80;7.57;;;;;;;;;;5092891;28;20016;-81
2023/01/30 00:39:51;;;;;;;13.93;5.10;;;;;;;;;;5092724;28;20023;-82
2023/01/30 00:47:44;;;;;;;17.10;8.67;;;;;;;;;;5094309;28;20324;-82
2023/01/30 00:50:09;;;;;;;18.73;9.47;;;;;;;;;;5093677;28;20016;-81
2023/01/30 00:52:34;;;;;;;23.33;8.43;;;;;;;;;;5082139;28;20077;-81
2023/01/30 00:55:00;;;;;;;11.17;4.57;;;;;;;;;;5087691;28;20124;-82
2023/01/30 00:57:25;;;;;;;15.27;7.43;;;;;;;;;;5092991;28;20023;-81
2023/01/30 00:59:50;;;;;;;18.00;6.73;;;;;;;;;;5092296;28;20055;-82
2023/01/30 01:02:15;;;;;;;15.07;7.40;;;;;;;;;;5092354;28;20845;-82
2023/01/30 01:04:43;;;;;;;22.17;9.30;;;;;;;;;;5086372;28;20444;-82
2023/01/30 01:07:09;;;;;;;14.63;7.13;;;;;;;;;;5092192;28;20098;-82
2023/01/30 01:09:34;;;;;;;19.53;8.37;;;;;;;;;;5093513;28;20417;-82
2023/01/30 01:11:59;;;;;;;18.27;7.00;;;;;;;;;;5093660;28;20074;-82
2023/01/30 01:14:24;;;;;;;19.57;8.90;;;;;;;;;;5071729;28;20207;-82
2023/01/30 01:16:50;;;;;;;15.73;6.73;;;;;;;;;;5070968;28;20023;-82
2023/01/30 01:19:15;;;;;;;16.37;6.73;;;;;;;;;;5071778;28;20067;-82
2023/01/30 01:21:40;;;;;;;18.43;9.93;;;;;;;;;;5071876;28;20024;-82
2023/01/30 01:24:05;;;;;;;14.93;6.57;;;;;;;;;;5073518;28;20028;-82
2023/01/30 01:26:32;;;;;;;19.17;7.63;;;;;;;;;;5071830;28;20112;-82
2023/01/30 01:28:57;;;;;;;16.23;6.37;;;;;;;;;;5070115;28;20107;-82
2023/01/30 01:31:24;;;;;;;17.47;7.13;;;;;;;;;;5071614;28;20047;-82
2023/01/30 01:33:49;;;;;;;20.90;8.43;;;;;;;;;;5072648;28;20024;-82
2023/01/30 01:36:15;;;;;;;17.73;9.50;;;;;;;;;;5071492;28;20016;-82
2023/01/30 01:38:40;;;;;;;18.47;9.43;;;;;;;;;;5071196;28;20020;-82
2023/01/30 01:41:05;;;;;;;20.30;7.70;;;;;;;;;;5070887;28;20618;-82
2023/01/30 01:43:35;;;;;;;19.40;8.70;;;;;;;;;;5071175;28;20494;-82
2023/01/30 01:46:09;;;;;;;16.17;6.43;;;;;;;;;;5062757;28;20024;-82
2023/01/30 01:48:37;;;;;;;12.07;5.00;;;;;;;;;;5070929;28;20021;-82
2023/01/30 01:51:05;;;;;;;18.43;7.30;;;;;;;;;;5071333;28;20039;-82
2023/01/30 01:53:32;;;;;;;18.73;8.77;;;;;;;;;;5071367;28;20029;-82
2023/01/30 01:55:58;;;;;;;20.20;7.80;;;;;;;;;;5070914;28;20040;-82
2023/01/30 01:58:27;;;;;;;13.87;6.40;;;;;;;;;;5072400;28;20070;-82
2023/01/30 02:00:53;;;;;;;14.33;7.47;;;;;;;;;;5070940;28;20047;-81
2023/01/30 02:03:21;;;;;;;18.20;8.83;;;;;;;;;;5072470;28;20020;-82
2023/01/30 02:05:48;;;;;;;13.80;5.67;;;;;;;;;;5071652;28;20032;-83
2023/01/30 02:08:20;;;;;;;16.27;6.37;;;;;;;;;;5070045;28;20023;-82
2023/01/30 02:10:49;;;;;;;17.20;8.55;;;;;;;;;;5071914;28;20036;-81
2023/01/30 02:13:15;;;;;;;10.43;4.63;;;;;;;;;;5072076;28;20017;-82
2023/01/30 02:15:40;;;;;;;11.27;4.90;;;;;;;;;;5070613;28;20414;-82
2023/01/30 02:18:06;;;;;;;13.93;7.77;;;;;;;;;;5072200;28;20126;-82
2023/01/30 02:20:31;;;;;;;15.63;6.50;;;;;;;;;;5070385;28;20120;-82
2023/01/30 02:23:13;;;;;;;15.00;6.10;;;;;;;;;;5070416;28;20086;-82
2023/01/30 02:25:57;;;;;;;13.37;6.33;;;;;;;;;;5069784;28;20024;-82
2023/01/30 02:28:45;;;;;;;13.30;4.93;;;;;;;;;;5069571;28;20021;-81
2023/01/30 02:31:29;;;;;;;13.50;5.53;;;;;;;;;;5070765;28;20440;-82
2023/01/30 02:34:13;;;;;;;14.50;6.10;;;;;;;;;;5060171;28;20027;-82
2023/01/30 02:36:53;;;;;;;15.90;7.10;;;;;;;;;;5070425;28;20920;-81
2023/01/30 02:39:24;;;;;;;9.10;4.70;;;;;;;;;;5070164;28;20028;-82
2023/01/30 02:42:03;;;;;;;12.23;5.13;;;;;;;;;;5070288;28;20505;-81
2023/01/30 02:44:31;;;;;;;14.57;5.87;;;;;;;;;;5070064;28;20028;-82
2023/01/30 02:47:00;;;;;;;14.97;6.67;;;;;;;;;;5069806;28;20115;-82
2023/01/30 02:49:41;;;;;;;13.60;5.60;;;;;;;;;;5070189;28;20029;-82
2023/01/30 02:52:07;;;;;;;12.87;5.90;;;;;;;;;;5070371;28;20086;-82
2023/01/30 02:54:33;;;;;;;15.43;6.37;;;;;;;;;;5070598;28;20460;-82
2023/01/30 02:56:58;;;;;;;13.80;5.57;;;;;;;;;;5071665;28;20032;-82
2023/01/30 02:59:32;;;;;;;14.63;6.40;;;;;;;;;;5071670;28;20024;-82
2023/01/30 03:02:12;;;;;;;16.03;6.93;;;;;;;;;;5070248;28;20046;-82
2023/01/30 03:04:45;;;;;;;15.30;6.90;;;;;;;;;;5069131;28;20463;-81
2023/01/30 03:07:19;;;;;;;13.47;6.20;;;;;;;;;;5081935;28;20029;-82
2023/01/30 03:09:54;;;;;;;12.57;7.30;;;;;;;;;;5070537;28;20070;-82
2023/01/30 03:12:28;;;;;;;13.50;5.80;;;;;;;;;;5070230;28;20104;-82
2023/01/30 03:15:04;;;;;;;13.27;6.20;;;;;;;;;;5069996;28;20033;-82
2023/01/30 03:17:30;;;;;;;13.07;6.47;;;;;;;;;;5071339;28;20648;-82
2023/01/30 03:19:56;;;;;;;17.80;7.77;;;;;;;;;;5069941;28;20032;-82
2023/01/30 03:22:21;;;;;;;10.97;5.73;;;;;;;;;;5070846;28;20025;-82
2023/01/30 03:24:48;;;;;;;11.67;4.90;;;;;;;;;;5070844;28;20024;-82
2023/01/30 03:27:13;;;;;;;10.93;5.27;;;;;;;;;;5070074;28;20035;-82
2023/01/30 03:29:39;;;;;;;11.57;5.00;;;;;;;;;;5069612;28;20025;-82
2023/01/30 03:32:04;;;;;;;14.73;6.73;;;;;;;;;;5070280;28;20025;-82
2023/01/30 03:34:30;;;;;;;14.50;5.87;;;;;;;;;;5070960;28;20380;-82
2023/01/30 03:36:55;;;;;;;13.03;6.43;;;;;;;;;;5071084;28;20365;-81
2023/01/30 03:39:22;;;;;;;14.97;7.57;;;;;;;;;;5071024;28;20476;-82
2023/01/30 03:41:47;;;;;;;16.27;5.43;;;;;;;;;;5065913;28;20066;-82
2023/01/30 03:44:12;;;;;;;12.43;6.57;;;;;;;;;;5058688;28;20031;-82
2023/01/30 03:46:37;;;;;;;10.33;4.73;;;;;;;;;;5070984;28;20120;-82
2023/01/30 03:49:03;;;;;;;13.43;6.20;;;;;;;;;;5069697;28;20025;-82
2023/01/30 03:51:28;;;;;;;13.80;6.77;;;;;;;;;;5070019;28;20028;-82
2023/01/30 03:53:53;;;;;;;11.10;5.23;;;;;;;;;;5069702;28;20564;-82
2023/01/30 03:56:18;;;;;;;11.00;5.73;;;;;;;;;;5069687;28;20020;-82
2023/01/30 03:58:43;;;;;;;12.17;5.83;;;;;;;;;;5069487;28;20021;-82
2023/01/30 04:01:08;;;;;;;14.13;6.73;;;;;;;;;;5069610;28;20717;-82
2023/01/30 04:03:34;;;;;;;10.60;4.83;;;;;;;;;;5068650;28;20025;-82
2023/01/30 04:05:59;;;;;;;10.67;4.97;;;;;;;;;;5073613;28;20020;-82
2023/01/30 04:08:24;;;;;;;10.17;4.73;;;;;;;;;;5074983;28;20351;-82
2023/01/30 04:10:49;;;;;;;9.90;5.00;;;;;;;;;;5074108;28;20013;-82
2023/01/30 04:13:14;;;;;;;11.93;4.87;;;;;;;;;;5073016;28;20025;-82
2023/01/30 04:15:40;;;;;;;8.83;4.33;;;;;;;;;;5072903;28;20013;-82
2023/01/30 04:18:05;;;;;;;8.97;4.30;;;;;;;;;;5074541;28;20383;-82
2023/01/30 04:20:30;;;;;;;14.97;7.97;;;;;;;;;;5074309;28;20028;-82
2023/01/30 04:22:55;;;;;;;8.67;3.80;;;;;;;;;;5073223;28;20024;-82
2023/01/30 04:25:21;;;;;;;10.40;5.70;;;;;;;;;;5073150;28;20342;-82
2023/01/30 04:27:46;;;;;;;13.30;4.87;;;;;;;;;;5072865;28;20487;-82
2023/01/30 04:30:11;;;;;;;9.60;4.70;;;;;;;;;;5072644;28;20047;-82
2023/01/30 04:32:36;;;;;;;11.67;6.67;;;;;;;;;;5074179;28;20016;-82
2023/01/30 04:35:02;;;;;;;9.17;4.20;;;;;;;;;;5074187;28;20567;-82
2023/01/30 04:37:27;;;;;;;6.93;3.07;;;;;;;;;;5073911;28;20016;-81
2023/01/30 04:39:52;;;;;;;12.73;4.67;;;;;;;;;;5072409;28;20016;-82
2023/01/30 04:42:17;;;;;;;7.03;3.30;;;;;;;;;;5072168;28;20021;-82
2023/01/30 04:44:42;;;;;;;8.33;3.73;;;;;;;;;;5068859;28;20053;-83
2023/01/30 04:47:07;;;;;;;5.23;2.80;;;;;;;;;;5071513;28;20153;-82
2023/01/30 04:49:33;;;;;;;7.33;3.43;;;;;;;;;;5074091;28;20016;-82
2023/01/30 04:51:58;;;;;;;8.93;4.03;;;;;;;;;;5072277;28;20455;-82
2023/01/30 04:54:23;;;;;;;5.53;2.63;;;;;;;;;;5073789;28;20023;-82
2023/01/30 04:56:48;;;;;;;6.63;3.43;;;;;;;;;;5072411;28;20023;-82
2023/01/30 04:59:14;;;;;;;9.77;4.53;;;;;;;;;;5073600;28;20021;-83
2023/01/30 05:01:39;;;;;;;6.53;3.90;;;;;;;;;;5070721;28;20482;-82
2023/01/30 05:04:05;;;;;;;9.07;4.70;;;;;;;;;;5071809;28;20027;-82
2023/01/30 05:06:31;;;;;;;8.77;4.90;;;;;;;;;;5072080;28;20107;-82
2023/01/30 05:08:57;;;;;;;5.23;2.47;;;;;;;;;;5073238;28;20027;-83
2023/01/30 05:11:23;;;;;;;9.13;4.27;;;;;;;;;;5071364;28;20020;-83
2023/01/30 05:13:48;;;;;;;6.00;2.40;;;;;;;;;;5073261;28;20017;-83
2023/01/30 05:16:14;;;;;;;6.17;3.00;;;;;;;;;;5072559;28;20020;-82
2023/01/30 05:18:40;;;;;;;7.73;4.33;;;;;;;;;;5071716;28;20021;-83
2023/01/30 05:21:09;;;;;;;7.17;3.30;;;;;;;;;;5070873;28;20025;-83
2023/01/30 05:23:34;;;;;;;13.23;4.20;;;;;;;;;;5073055;28;20093;-83
2023/01/30 05:26:00;;;;;;;8.27;4.83;;;;;;;;;;5071846;28;20095;-83
2023/01/30 05:28:26;;;;;;;5.77;2.60;;;;;;;;;;5072954;28;20092;-82
2023/01/30 05:30:51;;;;;;;8.53;4.13;;;;;;;;;;5073023;28;20021;-83
2023/01/30 05:33:16;;;;;;;4.20;2.60;;;;;;;;;;5072996;28;20129;-82
2023/01/30 05:35:45;;;;;;;8.13;4.50;;;;;;;;;;5071311;28;20027;-82
2023/01/30 05:38:11;;;;;;;7.93;4.43;;;;;;;;;;5071248;28;20417;-82
2023/01/30 05:40:36;;;;;;;5.73;2.90;;;;;;;;;;5071960;28;20020;-82
2023/01/30 05:43:01;;;;;;;8.57;3.80;;;;;;;;;;5071477;28;20566;-82
2023/01/30 05:45:26;;;;;;;5.57;2.63;;;;;;;;;;5067124;28;20460;-82
2023/01/30 05:47:52;;;;;;;5.70;2.80;;;;;;;;;;5071486;28;20035;-82
2023/01/30 05:50:17;;;;;;;5.37;2.57;;;;;;;;;;5070899;28;20012;-83
2023/01/30 05:52:42;;;;;;;5.23;2.47;;;;;;;;;;5071162;28;20047;-82
2023/01/30 05:55:08;;;;;;;6.07;3.60;;;;;;;;;;5070994;28;20025;-82
2023/01/30 05:57:33;;;;;;;6.90;2.40;;;;;;;;;;5071147;28;20028;-82
2023/01/30 05:59:58;;;;;;;5.07;2.37;;;;;;;;;;5070771;28;20497;-82
2023/01/30 06:02:23;;;;;;;7.00;2.63;;;;;;;;;;5072552;28;20044;-82
2023/01/30 06:04:48;;;;;;;6.13;3.23;;;;;;;;;;5071090;28;20053;-82
2023/01/30 06:07:14;;;;;;;6.57;3.20;;;;;;;;;;5072411;28;20185;-82
2023/01/30 06:09:39;;;;;;;4.37;2.33;;;;;;;;;;5070325;28;20501;-82
2023/01/30 06:12:05;;;;;;;5.90;2.77;;;;;;;;;;5072262;28;20012;-82
2023/01/30 06:14:30;;;;;;;6.03;3.10;;;;;;;;;;5071843;28;20092;-82
2023/01/30 06:16:55;;;;;;;6.67;3.33;;;;;;;;;;5070840;28;20024;-82
2023/01/30 06:19:21;;;;;;;7.23;3.23;;;;;;;;;;5070653;28;20032;-82
2023/01/30 06:21:46;;;;;;;4.23;2.53;;;;;;;;;;5076760;28;20530;-82
2023/01/30 06:24:11;;;;;;;4.27;2.33;;;;;;;;;;5079705;28;20078;-82
2023/01/30 06:26:36;;;;;;;6.00;2.63;;;;;;;;;;5071685;28;20463;-82
2023/01/30 06:29:01;;;;;;;5.63;2.87;;;;;;;;;;5070042;28;20103;-82
2023/01/30 06:31:27;;;;;;;6.70;2.67;;;;;;;;;;5070386;28;20100;-82
2023/01/30 06:33:52;;;;;;;4.97;2.80;;;;;;;;;;5070416;28;20124;-83
2023/01/30 06:36:17;;;;;;;7.17;2.83;;;;;;;;;;5070433;28;20093;-82
2023/01/30 06:38:42;;;;;;;4.77;2.80;;;;;;;;;;5071606;28;20017;-82
2023/01/30 06:41:07;;;;;;;3.37;1.90;;;;;;;;;;5072663;28;20108;-82
2023/01/30 06:43:33;;;;;;;7.07;2.60;;;;;;;;;;5076980;28;20388;-82
2023/01/30 06:45:58;;;;;;;11.37;3.80;;;;;;;;;;5061345;28;20028;-82
2023/01/30 06:48:23;;;;;;;6.80;2.83;;;;;;;;;;5070224;28;20017;-82
2023/01/30 06:50:48;;;;;;;4.83;2.20;;;;;;;;;;5071489;28;20087;-82
2023/01/30 06:53:14;;;;;;;6.07;3.10;;;;;;;;;;5071380;28;20043;-82
2023/01/30 06:55:39;;;;;;;5.20;2.23;;;;;;;;;;5069482;28;20020;-82
2023/01/30 06:58:05;;;;;;;6.40;2.97;;;;;;;;;;5067550;28;20383;-82
2023/01/30 07:00:31;;;;;;;6.50;2.57;;;;;;;;;;5069804;28;20547;-82
2023/01/30 07:02:56;;;;;;;4.60;2.97;;;;;;;;;;5069762;28;20115;-82
2023/01/30 07:05:22;;;;;;;12.13;2.93;;;;;;;;;;5066711;28;20048;-82
2023/01/30 07:07:47;;;;;;;11.83;2.67;;;;;;;;;;5071112;28;20016;-83
2023/01/30 07:10:12;;;;;;;5.37;2.90;;;;;;;;;;5069547;28;20073;-83
2023/01/30 07:12:37;;;;;;;5.70;2.23;;;;;;;;;;5069978;28;20082;-84
2023/01/30 07:15:04;;;;;;;7.20;2.77;;;;;;;;;;5068885;28;20054;-84
2023/01/30 07:17:29;;;;;;;4.67;2.37;;;;;;;;;;5072015;28;20044;-84
2023/01/30 07:19:54;;;;;;;8.20;2.80;;;;;;;;;;5071304;28;20032;-84
2023/01/30 07:22:19;;;;;;;4.53;2.10;;;;;;;;;;5067788;28;20021;-84
2023/01/30 07:24:44;;;;;;;5.50;2.33;;;;;;;;;;5069941;28;20036;-87
2023/01/30 07:27:10;;;;;;;6.73;2.60;;;;;;;;;;5065141;28;20017;-87
2023/01/30 07:29:36;;;;;;;4.67;2.20;;;;;;;;;;5067564;28;20111;-87
2023/01/30 07:32:01;;;;;;;3.80;2.00;;;;;;;;;;5066012;28;20638;-88
2023/01/30 07:34:26;;;;;;;4.10;2.30;;;;;;;;;;5069269;28;20379;-88
2023/01/30 07:36:52;;;;;;;3.67;2.13;;;;;;;;;;5070208;28;20032;-88
2023/01/30 07:39:17;;;;;;;2.80;1.53;;;;;;;;;;5071758;28;20016;-88
2023/01/30 07:41:42;;;;;;;8.13;2.07;;;;;;;;;;5074235;28;20417;-88
2023/01/30 07:44:08;;;;;;;7.10;1.77;;;;;;;;;;5074032;28;20017;-87
2023/01/30 07:46:34;;;;;;;5.20;1.77;;;;;;;;;;5072977;28;20032;-88
2023/01/30 07:49:06;;;;;;;4.97;1.63;;;;;;;;;;5073423;28;20361;-88
2023/01/30 07:51:31;;;;;;;1.63;0.88;;;;;;;;;;5070168;28;20017;-88
2023/01/30 07:53:56;;;;;;;3.33;1.10;;;;;;;;;;5072832;28;20109;-88
2023/01/30 07:56:21;;;;;;;2.27;1.20;;;;;;;;;;5075401;28;20099;-88
2023/01/30 07:58:47;;;;;;;2.83;1.13;;;;;;;;;;5073943;28;20021;-89
2023/01/30 08:01:12;;;;;;;7.47;0.93;;;;;;;;;;5082666;28;20027;-88
2023/01/30 08:03:37;;;;;;;2.80;0.90;;;;;;;;;;5072095;28;20177;-88
2023/01/30 08:06:03;;;;;;;2.00;0.63;;;;;;;;;;5075484;28;20119;-88
2023/01/30 08:08:28;;;;;;;4.17;0.87;;;;;;;;;;5077756;28;20016;-88
2023/01/30 08:10:56;;;;;;;2.43;0.70;;;;;;;;;;5073882;28;20078;-88
2023/01/30 08:13:21;;;;;;;5.13;0.80;;;;;;;;;;5073251;28;20056;-88
2023/01/30 08:15:47;;;;;;;1.90;0.63;;;;;;;;;;5069517;28;20021;-87
2023/01/30 08:18:12;;;;;;;2.80;0.60;;;;;;;;;;5074496;28;20024;-88
2023/01/30 08:20:37;;;;;;;1.20;0.70;;;;;;;;;;5072948;28;20039;-88
2023/01/30 08:23:03;;;;;;;5.47;0.80;;;;;;;;;;5072434;28;20031;-88
2023/01/30 08:25:28;;;;;;;6.47;1.00;;;;;;;;;;5074902;28;20016;-88
2023/01/30 08:27:53;;;;;;;8.17;0.90;;;;;;;;;;5074830;28;20009;-88
2023/01/30 08:30:19;;;;;;;1.40;0.77;;;;;;;;;;5073805;28;20013;-88
2023/01/30 08:32:44;;;;;;;0.97;0.50;;;;;;;;;;5074318;28;20030;-87
2023/01/30 08:35:09;;;;;;;2.23;0.80;;;;;;;;;;5074078;28;20021;-87
2023/01/30 08:37:35;;;;;;;1.43;0.70;;;;;;;;;;5073307;28;20016;-88
2023/01/30 08:40:00;;;;;;;1.10;0.50;;;;;;;;;;5074316;28;20051;-88
2023/01/30 08:42:25;;;;;;;1.90;0.70;;;;;;;;;;5073322;28;20082;-88
2023/01/30 08:44:50;;;;;;;3.03;0.57;;;;;;;;;;5074361;28;20059;-88
2023/01/30 08:47:16;;;;;;;2.10;0.87;;;;;;;;;;5074588;28;20025;-88
2023/01/30 08:49:41;;;;;;;7.00;1.67;;;;;;;;;;5065217;28;20017;-87
2023/01/30 08:52:06;;;;;;;1.97;0.80;;;;;;;;;;5072985;28;20034;-88
2023/01/30 08:54:31;;;;;;;2.10;0.97;;;;;;;;;;5073402;28;20078;-88
2023/01/30 08:56:56;;;;;;;1.40;1.07;;;;;;;;;;5073034;28;20024;-88
2023/01/30 08:59:21;;;;;;;4.10;1.13;;;;;;;;;;5073122;28;20023;-88
2023/01/30 09:01:47;;;;;;;2.70;1.10;;;;;;;;;;5070659;28;20661;-88
2023/01/30 09:04:12;;;;;;;4.27;0.70;;;;;;;;;;5073725;28;20023;-86
2023/01/30 09:06:37;;;;;;;3.43;0.60;;;;;;;;;;5069801;28;20028;-85
2023/01/30 09:09:02;;;;;;;3.43;0.90;;;;;;;;;;5072077;28;20024;-85
2023/01/30 09:11:28;;;;;;;1.83;0.67;;;;;;;;;;5067243;28;20013;-86
2023/01/30 09:13:53;;;;;;;2.87;0.90;;;;;;;;;;5068185;28;20024;-86
2023/01/30 09:16:18;;;;;;;0.97;0.40;;;;;;;;;;5073304;28;20048;-84
2023/01/30 09:18:43;;;;;;;3.13;0.83;;;;;;;;;;5071980;28;20102;-85
2023/01/30 09:21:09;;;;;;;5.53;0.93;;;;;;;;;;5071759;28;20490;-86
2023/01/30 09:23:35;;;;;;;4.17;1.47;;;;;;;;;;5071989;28;20352;-85
2023/01/30 09:26:01;;;;;;;1.20;0.50;;;;;;;;;;5073235;28;20016;-85
2023/01/30 09:28:26;;;;;;;2.10;0.90;;;;;;;;;;5071826;28;20008;-85
2023/01/30 09:30:51;;;;;;;1.83;0.80;;;;;;;;;;5071980;28;20103;-86
2023/01/30 09:33:19;;;;;;;2.60;0.70;;;;;;;;;;5069792;28;20028;-85
2023/01/30 09:35:47;;;;;;;7.50;1.00;;;;;;;;;;5071666;28;20410;-85
2023/01/30 09:38:12;;;;;;;3.70;1.10;;;;;;;;;;5071845;28;20539;-85
2023/01/30 09:40:41;;;;;;;3.47;0.80;;;;;;;;;;5072581;28;20100;-85
2023/01/30 09:43:10;;;;;;;4.80;0.83;;;;;;;;;;5071478;28;20107;-85
2023/01/30 09:45:44;;;;;;;1.13;0.43;;;;;;;;;;5060187;28;20013;-85
2023/01/30 09:48:09;;;;;;;4.73;1.03;;;;;;;;;;5068554;28;20013;-86
2023/01/30 09:50:53;;;;;;;3.67;0.80;;;;;;;;;;5070670;28;20016;-86
2023/01/30 09:53:30;;;;;;;5.70;1.03;;;;;;;;;;5073134;28;20025;-85
2023/01/30 09:55:56;;;;;;;2.20;0.97;;;;;;;;;;5072723;28;20104;-85
2023/01/30 09:58:23;;;;;;;0.67;0.37;;;;;;;;;;5066389;28;20063;-85
2023/01/30 10:00:50;;;;;;;2.23;0.50;;;;;;;;;;5071128;28;20028;-85
2023/01/30 10:03:20;;;;;;;6.33;0.83;;;;;;;;;;5070834;28;20028;-85
2023/01/30 10:05:48;;;;;;;5.10;0.60;;;;;;;;;;5070963;28;20021;-86
2023/01/30 10:08:31;;;;;;;1.37;0.53;;;;;;;;;;5071603;28;20029;-85
2023/01/30 10:11:15;;;;;;;2.13;0.50;;;;;;;;;;5070190;28;20039;-85
2023/01/30 10:13:53;;;;;;;1.53;0.50;;;;;;;;;;5071341;28;20043;-85
2023/01/30 10:16:34;;;;;;;4.80;1.10;;;;;;;;;;5055032;28;20017;-85
2023/01/30 10:19:22;;;;;;;7.63;0.80;;;;;;;;;;5065996;28;20028;-85
2023/01/30 10:21:51;;;;;;;5.30;0.50;;;;;;;;;;5062528;28;20062;-85
2023/01/30 10:24:23;;;;;;;6.40;1.00;;;;;;;;;;5072113;28;20111;-85
2023/01/30 10:26:48;;;;;;;1.65;0.43;;;;;;;;;;5071017;28;20032;-85
2023/01/30 10:29:13;;;;;;;4.93;0.60;;;;;;;;;;5069877;28;20021;-85
2023/01/30 10:32:11;;;;;;;6.87;0.67;;;;;;;;;;5070356;28;20395;-85
2023/01/30 10:34:40;;;;;;;2.60;0.80;;;;;;;;;;5037424;28;20480;-85
2023/01/30 10:37:09;;;;;;;9.53;0.80;;;;;;;;;;5058707;28;20498;-85
2023/01/30 10:39:38;;;;;;;1.27;0.30;;;;;;;;;;5070567;28;20027;-85
2023/01/30 10:42:05;;;;;;;3.97;0.70;;;;;;;;;;5069413;28;20108;-85
2023/01/30 10:44:30;;;;;;;4.77;0.53;;;;;;;;;;5067548;28;20021;-85
2023/01/30 10:47:11;;;;;;;4.93;0.60;;;;;;;;;;5070698;28;20027;-85
2023/01/30 10:49:45;;;;;;;2.27;0.50;;;;;;;;;;5071835;28;20017;-84
2023/01/30 10:52:10;;;;;;;3.90;1.00;;;;;;;;;;5071853;28;20036;-85
2023/01/30 10:54:43;;;;;;;8.70;0.93;;;;;;;;;;5070599;28;20059;-85
2023/01/30 10:57:11;;;;;;;1.85;0.43;;;;;;;;;;5065543;28;20024;-85
2023/01/30 10:59:58;;;;;;;4.70;0.40;;;;;;;;;;5070365;28;20025;-85
2023/01/30 11:02:26;;;;;;;4.90;0.37;;;;;;;;;;5069624;28;20012;-85
2023/01/30 11:04:52;;;;;;;3.43;0.40;;;;;;;;;;5071214;28;20024;-84
2023/01/30 11:07:17;;;;;;;8.90;1.30;;;;;;;;;;5069431;28;20017;-85
2023/01/30 11:09:44;;;;;;;2.10;0.10;;;;;;;;;;5071551;28;20099;-85
2023/01/30 11:12:09;;;;;;;6.32;0.52;;;;;;;;;;5070347;28;20093;-85
2023/01/30 11:14:55;;;;;;;4.45;0.80;;;;;;;;;;5069583;28;20499;-84
2023/01/30 11:17:21;;;;;;;2.42;0.50;;;;;;;;;;5074366;28;20031;-85
2023/01/30 11:19:53;;;;;;;3.60;0.40;;;;;;;;;;5074324;28;20773;-85
2023/01/30 11:22:19;;;;;;;;;;;;;;;;;;5076257;28;20020;-85
2023/01/30 11:24:45;;;;;;;6.03;0.47;;;;;;;;;;5075659;28;19985;-85
2023/01/30 11:27:17;;;;;;;1.80;0.30;;;;;;;;;;5075738;28;20020;-85
2023/01/30 11:29:42;;;;;;;2.30;0.65;;;;;;;;;;5074016;28;20424;-84
2023/01/30 11:32:13;;;;;;;0.70;0.30;;;;;;;;;;5074343;28;20033;-85
2023/01/30 11:34:40;;;;;;;2.17;0.40;;;;;;;;;;5073925;28;20468;-85
2023/01/30 11:37:26;;;;;;;3.47;0.50;;;;;;;;;;5075718;28;20118;-85
2023/01/30 11:39:51;;;;;;;5.47;0.55;;;;;;;;;;5073490;28;20101;-84
2023/01/30 11:42:18;;;;;;;3.95;0.52;;;;;;;;;;5074111;28;20386;-85
2023/01/30 11:44:43;;;;;;;4.38;1.38;;;;;;;;;;5073459;28;20459;-85
2023/01/30 11:47:12;;;;;;;4.43;0.60;;;;;;;;;;5075344;28;20027;-85
2023/01/30 11:49:40;;;;;;;5.47;0.60;;;;;;;;;;5073956;28;20033;-85
2023/01/30 11:52:05;;;;;;;6.95;0.40;;;;;;;;;;5074186;28;20013;-85
2023/01/30 11:54:32;;;;;;;0.63;0.32;;;;;;;;;;5075385;28;20028;-85
2023/01/30 11:57:00;;;;;;;2.40;0.43;;;;;;;;;;5074740;28;20029;-85
2023/01/30 11:59:55;;;;;;;5.78;1.05;;;;;;;;;;5073631;28;20019;-84
2023/01/30 12:02:22;;;;;;;1.47;0.50;;;;;;;;;;5050972;28;20048;-84
2023/01/30 12:04:52;;;;;;;4.63;0.57;;;;;;;;;;5072273;28;20028;-84
2023/01/30 12:07:25;;;;;;;6.55;1.58;;;;;;;;;;5073372;28;20028;-82
2023/01/30 12:09:52;;;;;;;2.28;0.30;;;;;;;;;;5072107;28;20074;-82
2023/01/30 12:12:35;;;;;;;2.13;0.40;;;;;;;;;;5072067;28;20594;-82
2023/01/30 12:15:09;;;;;;;1.80;0.68;;;;;;;;;;5072401;28;20020;-82
2023/01/30 12:17:53;;;;;;;6.43;1.05;;;;;;;;;;5073063;28;20025;-82
2023/01/30 12:20:24;;;;;;;0.65;0.40;;;;;;;;;;5072480;28;20048;-82
2023/01/30 12:23:00;;;;;;;3.92;0.50;;;;;;;;;;5071718;28;20032;-82
2023/01/30 12:25:28;;;;;;;5.28;1.20;;;;;;;;;;5059804;28;20033;-82
2023/01/30 12:28:00;;;;;;;1.80;0.30;;;;;;;;;;5063602;28;20025;-81
2023/01/30 12:30:34;;;;;;;7.32;1.23;;;;;;;;;;5070642;28;20108;-82
2023/01/30 12:33:02;;;;;;;1.90;0.50;;;;;;;;;;5065627;28;20040;-82
2023/01/30 12:35:50;;;;;;;2.55;0.85;;;;;;;;;;5072831;28;20456;-82
2023/01/30 12:38:24;;;;;;;2.53;0.30;;;;;;;;;;5064330;28;20752;-82
2023/01/30 12:41:00;;;;;;;1.75;0.55;;;;;;;;;;5073871;28;20099;-82
2023/01/30 12:43:37;;;;;;;2.65;0.52;;;;;;;;;;5073451;28;20095;-81
2023/01/30 12:46:02;;;;;;;1.40;0.45;;;;;;;;;;5072176;28;20058;-82
2023/01/30 12:48:36;;;;;;;3.80;0.55;;;;;;;;;;5071575;28;20436;-82
2023/01/30 12:51:04;;;;;;;3.47;0.60;;;;;;;;;;5073792;28;20021;-82
2023/01/30 12:53:30;;;;;;;3.72;0.70;;;;;;;;;;5073543;28;20016;-82
2023/01/30 12:56:16;;;;;;;1.65;0.55;;;;;;;;;;5072051;28;20487;-82
2023/01/30 12:59:00;;;;;;;3.15;0.30;;;;;;;;;;5072255;28;20029;-82
2023/01/30 13:01:37;;;;;;;3.60;0.28;;;;;;;;;;5072349;28;20472;-82
2023/01/30 13:04:09;;;;;;;2.97;0.88;;;;;;;;;;5072134;28;20016;-82
2023/01/30 13:06:53;;;;;;;2.10;0.60;;;;;;;;;;5072348;28;20013;-82
2023/01/30 13:09:24;;;;;;;3.43;0.30;;;;;;;;;;5069923;28;20017;-82
2023/01/30 13:12:12;;;;;;;4.80;0.47;;;;;;;;;;5073689;28;20017;-82
2023/01/30 13:14:41;;;;;;;5.35;0.57;;;;;;;;;;5073482;28;20021;-82
2023/01/30 13:17:09;;;;;;;3.97;0.82;;;;;;;;;;5072049;28;20082;-82
2023/01/30 13:19:47;;;;;;;0.50;0.30;;;;;;;;;;5054434;28;20025;-82
2023/01/30 13:22:31;;;;;;;0.77;0.60;;;;;;;;;;5065938;28;20128;-82
2023/01/30 13:25:05;;;;;;;1.73;0.60;;;;;;;;;;5071397;28;20070;-82
2023/01/30 13:27:34;;;;;;;2.72;0.50;;;;;;;;;;5071762;28;20424;-83
2023/01/30 13:30:00;;;;;;;5.00;0.65;;;;;;;;;;5070552;28;20478;-82
2023/01/30 13:32:32;;;;;;;2.70;0.50;;;;;;;;;;5071916;28;20017;-82
2023/01/30 13:34:58;;;;;;;6.90;0.73;;;;;;;;;;5071767;28;20027;-82
2023/01/30 13:37:23;;;;;;;4.90;0.50;;;;;;;;;;5072098;28;20744;-82
2023/01/30 13:39:59;;;;;;;3.92;0.65;;;;;;;;;;5072809;28;20024;-82
2023/01/30 13:42:43;;;;;;;2.88;0.45;;;;;;;;;;5073115;28;20017;-82
2023/01/30 13:45:14;;;;;;;1.75;0.40;;;;;;;;;;5070564;28;20424;-82
2023/01/30 13:47:42;;;;;;;2.58;0.43;;;;;;;;;;5071648;28;20471;-82
2023/01/30 13:50:07;;;;;;;6.18;0.60;;;;;;;;;;5069726;28;20032;-82
2023/01/30 13:52:36;;;;;;;7.03;0.25;;;;;;;;;;5072655;28;20013;-82
2023/01/30 13:55:21;;;;;;;3.13;0.70;;;;;;;;;;5071442;28;20017;-82
2023/01/30 13:58:05;;;;;;;4.05;1.00;;;;;;;;;;5070468;28;20131;-82
2023/01/30 14:00:34;;;;;;;3.15;0.80;;;;;;;;;;5070842;28;20393;-82
2023/01/30 14:03:02;;;;;;;4.70;1.10;;;;;;;;;;5071287;28;20032;-82
2023/01/30 14:05:46;;;;;;;1.58;0.70;;;;;;;;;;5072092;28;20020;-82
2023/01/30 14:08:16;;;;;;;5.07;0.75;;;;;;;;;;5072671;28;20027;-82
2023/01/30 14:10:41;;;;;;;5.45;0.50;;;;;;;;;;5070766;28;20042;-82
2023/01/30 14:13:07;;;;;;;4.43;0.50;;;;;;;;;;5071183;28;20112;-82
2023/01/30 14:15:32;;;;;;;6.60;0.50;;;;;;;;;;5072119;28;20029;-82
2023/01/30 14:18:25;;;;;;;4.47;0.45;;;;;;;;;;5070941;28;20017;-82
2023/01/30 14:20:51;;;;;;;6.72;0.60;;;;;;;;;;5045768;28;20048;-82
2023/01/30 14:23:21;;;;;;;5.30;0.43;;;;;;;;;;5070598;28;20073;-82
2023/01/30 14:25:51;;;;;;;6.65;0.90;;;;;;;;;;5070044;28;20115;-82
2023/01/30 14:28:17;;;;;;;0.70;0.40;;;;;;;;;;5070783;28;20076;-82
2023/01/30 14:30:48;;;;;;;0.77;0.20;;;;;;;;;;5072090;28;20405;-82
2023/01/30 14:33:33;;;;;;;5.50;0.35;;;;;;;;;;5071278;28;20047;-81
2023/01/30 14:35:59;;;;;;;3.03;0.50;;;;;;;;;;5071712;28;20539;-82
2023/01/30 14:38:24;;;;;;;5.78;0.77;;;;;;;;;;5070665;28;20078;-82
2023/01/30 14:40:59;;;;;;;2.53;0.47;;;;;;;;;;5071816;28;20027;-82
2023/01/30 14:43:24;;;;;;;1.15;0.40;;;;;;;;;;5071590;28;20109;-82
2023/01/30 14:45:49;;;;;;;6.30;0.70;;;;;;;;;;5069977;28;20446;-81
2023/01/30 14:48:20;;;;;;;1.75;0.45;;;;;;;;;;5070297;28;20016;-81
2023/01/30 14:50:46;;;;;;;1.27;0.50;;;;;;;;;;5071831;28;20092;-82